createdAt,value
2018-12-30T00:00:51.187Z,96.30
2018-12-30T00:03:20.223Z,96.40
2018-12-30T00:05:50.098Z,96.50
2018-12-30T00:08:19.524Z,96.40
2018-12-30T00:10:48.753Z,96.20
2018-12-30T00:13:18.089Z,96.40
2018-12-30T00:15:47.492Z,96.20
2018-12-30T00:18:16.721Z,96.10
2018-12-30T00:20:45.685Z,96.10
2018-12-30T00:23:15.135Z,96.20
2018-12-30T00:25:44.060Z,96.30
2018-12-30T00:28:13.456Z,96.50
2018-12-30T00:30:42.655Z,96.80
2018-12-30T00:33:11.975Z,97.00
2018-12-30T00:35:41.112Z,97.30
2018-12-30T00:38:10.141Z,97.60
2018-12-30T00:40:39.202Z,97.70
2018-12-30T00:43:08.648Z,97.60
2018-12-30T00:45:37.546Z,97.80
2018-12-30T00:48:06.678Z,97.90
2018-12-30T00:50:36.037Z,98.00
2018-12-30T00:53:05.542Z,98.10
2018-12-30T00:55:34.907Z,98.10
2018-12-30T00:58:04.356Z,98.00
2018-12-30T01:00:33.422Z,97.90
2018-12-30T01:03:02.726Z,98.00
2018-12-30T01:05:31.743Z,98.00
2018-12-30T01:08:00.857Z,98.00
2018-12-30T01:10:30.024Z,98.00
2018-12-30T01:12:58.998Z,98.10
2018-12-30T01:15:28.020Z,98.10
2018-12-30T01:17:57.564Z,98.20
2018-12-30T01:20:26.702Z,98.20
2018-12-30T01:22:55.764Z,98.30
2018-12-30T01:25:25.059Z,98.10
2018-12-30T01:27:54.195Z,98.30
2018-12-30T01:30:23.408Z,98.30
2018-12-30T01:32:52.980Z,98.20
2018-12-30T01:35:22.004Z,98.20
2018-12-30T01:37:51.348Z,98.40
2018-12-30T01:40:20.337Z,98.60
2018-12-30T01:42:49.835Z,98.50
2018-12-30T01:45:19.300Z,98.50
2018-12-30T01:47:48.286Z,98.40
2018-12-30T01:50:17.935Z,98.50
2018-12-30T01:52:46.976Z,98.50
2018-12-30T01:55:16.200Z,98.80
2018-12-30T01:57:45.089Z,99.40
2018-12-30T02:00:14.187Z,99.20
2018-12-30T02:02:43.531Z,99.60
2018-12-30T02:05:12.496Z,99.30
2018-12-30T02:07:41.544Z,99.10
2018-12-30T02:10:10.637Z,99.00
2018-12-30T02:12:39.958Z,99.00
2018-12-30T02:15:09.011Z,99.00
2018-12-30T02:17:38.383Z,98.90
2018-12-30T02:20:07.438Z,98.80
2018-12-30T02:22:36.425Z,98.80
2018-12-30T02:25:05.956Z,98.80
2018-12-30T02:27:34.899Z,98.70
2018-12-30T02:30:04.669Z,98.70
2018-12-30T02:32:33.709Z,98.60
2018-12-30T02:35:02.997Z,98.50
2018-12-30T02:37:31.955Z,98.50
2018-12-30T02:40:00.901Z,98.50
2018-12-30T02:42:30.032Z,98.40
2018-12-30T02:44:59.250Z,98.40
2018-12-30T02:47:28.866Z,98.40
2018-12-30T02:49:57.859Z,98.40
2018-12-30T02:52:27.228Z,98.40
2018-12-30T02:54:56.204Z,98.40
2018-12-30T02:57:25.093Z,98.30
2018-12-30T02:59:54.026Z,98.20
2018-12-30T03:02:23.347Z,98.20
2018-12-30T03:04:52.598Z,98.30
2018-12-30T03:07:21.537Z,98.40
2018-12-30T03:09:51.362Z,98.40
2018-12-30T03:12:20.358Z,98.50
2018-12-30T03:14:49.718Z,98.40
2018-12-30T03:17:19.032Z,98.20
2018-12-30T03:19:48.313Z,98.10
2018-12-30T03:22:17.226Z,98.10
2018-12-30T03:24:46.242Z,98.30
2018-12-30T03:27:15.606Z,98.40
2018-12-30T03:29:45.159Z,98.50
2018-12-30T03:32:20.461Z,98.50
2018-12-30T03:34:49.357Z,98.60
2018-12-30T03:37:18.766Z,98.60
2018-12-30T03:39:48.033Z,98.60
2018-12-30T03:42:16.913Z,98.70
2018-12-30T03:44:45.975Z,98.60
2018-12-30T03:47:14.946Z,98.50
2018-12-30T03:49:43.901Z,98.50
2018-12-30T03:52:12.867Z,98.60
2018-12-30T03:54:41.823Z,98.60
2018-12-30T03:57:10.888Z,98.60
2018-12-30T03:59:39.861Z,98.60
2018-12-30T04:02:09.188Z,98.50
2018-12-30T04:04:38.499Z,98.60
2018-12-30T04:07:07.572Z,98.50
2018-12-30T04:09:36.656Z,98.60
2018-12-30T04:12:06.015Z,98.60
2018-12-30T04:14:34.880Z,98.70
2018-12-30T04:17:03.866Z,98.70
2018-12-30T04:19:33.114Z,98.80
2018-12-30T04:22:02.027Z,98.90
2018-12-30T04:24:31.020Z,98.90
2018-12-30T04:26:59.989Z,98.90
2018-12-30T04:29:29.083Z,98.90
2018-12-30T04:31:58.020Z,98.90
2018-12-30T04:34:27.396Z,99.00
2018-12-30T04:36:56.366Z,98.90
2018-12-30T04:39:25.904Z,99.00
2018-12-30T04:41:54.796Z,99.00
2018-12-30T04:44:23.790Z,99.10
2018-12-30T04:46:52.675Z,99.20
2018-12-30T04:49:22.395Z,99.40
2018-12-30T04:51:51.807Z,99.40
2018-12-30T04:54:39.905Z,99.40
2018-12-30T04:57:08.765Z,99.30
2018-12-30T04:59:37.716Z,99.70
2018-12-30T05:02:06.745Z,99.40
2018-12-30T05:04:36.046Z,99.30
2018-12-30T05:07:05.084Z,99.40
2018-12-30T05:09:34.349Z,99.50
2018-12-30T05:12:03.442Z,99.50
2018-12-30T05:14:32.777Z,99.60
2018-12-30T05:17:01.748Z,99.50
2018-12-30T05:19:30.667Z,99.90
2018-12-30T05:21:59.568Z,99.70
2018-12-30T05:24:28.792Z,99.50
2018-12-30T05:26:58.081Z,99.70
2018-12-30T05:29:27.054Z,99.70
2018-12-30T05:31:56.303Z,99.80
2018-12-30T05:34:25.200Z,99.90
2018-12-30T05:36:54.111Z,99.90
2018-12-30T05:39:22.995Z,99.90
2018-12-30T05:41:52.006Z,99.90
2018-12-30T05:44:20.962Z,99.90
2018-12-30T05:46:50.229Z,99.90
2018-12-30T05:49:19.257Z,99.90
2018-12-30T05:52:07.670Z,99.90
2018-12-30T05:54:37.026Z,99.90
2018-12-30T05:57:05.926Z,99.90
2018-12-30T05:59:34.912Z,99.90
2018-12-30T06:02:04.212Z,99.90
2018-12-30T06:04:33.265Z,99.90
2018-12-30T06:07:02.561Z,99.90
2018-12-30T06:09:31.744Z,99.90
2018-12-30T06:12:00.684Z,99.90
2018-12-30T06:14:29.671Z,99.80
2018-12-30T06:16:58.726Z,99.80
2018-12-30T06:19:27.598Z,99.70
2018-12-30T06:21:56.654Z,99.70
2018-12-30T06:24:26.023Z,99.60
2018-12-30T06:26:55.066Z,99.60
2018-12-30T06:29:24.022Z,99.50
2018-12-30T06:31:53.234Z,99.80
2018-12-30T06:34:22.500Z,99.50
2018-12-30T06:36:51.843Z,99.50
2018-12-30T06:39:20.717Z,99.60
2018-12-30T06:41:49.722Z,99.70
2018-12-30T06:44:18.916Z,99.70
2018-12-30T06:46:48.110Z,99.70
2018-12-30T06:49:17.084Z,99.70
2018-12-30T06:51:46.410Z,99.70
2018-12-30T06:54:15.418Z,99.70
2018-12-30T06:56:44.455Z,99.80
2018-12-30T06:59:14.014Z,99.90
2018-12-30T07:01:43.254Z,99.90
2018-12-30T07:04:12.215Z,99.90
2018-12-30T07:06:41.305Z,99.90
2018-12-30T07:09:10.382Z,99.90
2018-12-30T07:11:39.344Z,99.90
2018-12-30T07:14:08.938Z,99.90
2018-12-30T07:16:37.852Z,99.90
2018-12-30T07:19:07.546Z,99.90
2018-12-30T07:21:36.959Z,99.90
2018-12-30T07:24:05.919Z,99.90
2018-12-30T07:26:34.884Z,99.90
2018-12-30T07:29:03.924Z,99.90
2018-12-30T07:31:33.324Z,99.90
2018-12-30T07:34:02.591Z,99.90
2018-12-30T07:36:31.955Z,99.90
2018-12-30T07:39:01.230Z,99.90
2018-12-30T07:41:30.839Z,99.90
2018-12-30T07:44:00.175Z,99.90
2018-12-30T07:46:29.188Z,99.90
2018-12-30T07:48:58.117Z,99.90
2018-12-30T07:51:27.013Z,99.90
2018-12-30T07:53:56.048Z,99.90
2018-12-30T07:56:25.430Z,99.90
2018-12-30T07:58:54.516Z,99.90
2018-12-30T08:01:23.550Z,99.90
2018-12-30T08:03:52.692Z,99.80
2018-12-30T08:06:21.648Z,99.80
2018-12-30T08:08:50.885Z,99.90
2018-12-30T08:11:20.227Z,99.70
2018-12-30T08:13:49.138Z,99.60
2018-12-30T08:16:18.483Z,99.60
2018-12-30T08:18:48.183Z,99.60
2018-12-30T08:21:17.422Z,99.50
2018-12-30T08:23:47.128Z,99.50
2018-12-30T08:26:16.594Z,99.50
2018-12-30T08:28:45.562Z,99.40
2018-12-30T08:31:14.915Z,99.40
2018-12-30T08:33:43.809Z,99.30
2018-12-30T08:36:12.980Z,99.40
2018-12-30T08:38:42.354Z,99.30
2018-12-30T08:41:11.282Z,99.20
2018-12-30T08:43:40.597Z,98.90
2018-12-30T08:46:09.983Z,99.10
2018-12-30T08:48:39.001Z,99.00
2018-12-30T08:51:11.248Z,98.80
2018-12-30T08:53:40.856Z,98.90
2018-12-30T08:56:10.245Z,98.80
2018-12-30T08:58:39.627Z,98.80
2018-12-30T09:01:08.731Z,98.50
2018-12-30T09:03:38.152Z,98.50
2018-12-30T09:06:07.189Z,98.40
2018-12-30T09:08:36.710Z,98.30
2018-12-30T09:11:06.348Z,98.30
2018-12-30T09:13:35.549Z,98.30
2018-12-30T09:16:04.772Z,98.20
2018-12-30T09:18:33.854Z,98.20
2018-12-30T09:21:02.932Z,98.10
2018-12-30T09:23:37.232Z,97.80
2018-12-30T09:26:03.299Z,97.70
2018-12-30T09:28:32.441Z,97.60
2018-12-30T09:31:02.125Z,97.30
2018-12-30T09:33:31.846Z,97.30
2018-12-30T09:36:01.830Z,97.20
2018-12-30T09:38:30.747Z,97.20
2018-12-30T09:41:00.107Z,97.40
2018-12-30T09:43:29.963Z,97.40
2018-12-30T09:45:59.345Z,97.30
2018-12-30T09:48:33.716Z,96.90
2018-12-30T09:50:59.672Z,97.10
2018-12-30T09:53:28.640Z,97.00
2018-12-30T09:55:57.976Z,96.70
2018-12-30T09:58:27.268Z,96.90
2018-12-30T10:00:56.905Z,97.00
2018-12-30T10:03:26.660Z,97.10
2018-12-30T10:05:55.930Z,97.00
2018-12-30T10:08:25.316Z,97.00
2018-12-30T10:11:00.899Z,96.80
2018-12-30T10:13:30.089Z,96.70
2018-12-30T10:15:59.037Z,96.70
2018-12-30T10:18:28.225Z,96.90
2018-12-30T10:20:57.736Z,97.00
2018-12-30T10:23:26.844Z,97.10
2018-12-30T10:25:55.984Z,97.10
2018-12-30T10:28:25.078Z,97.30
2018-12-30T10:30:54.777Z,97.30
2018-12-30T10:33:24.220Z,97.40
2018-12-30T10:35:53.267Z,97.30
2018-12-30T10:38:22.630Z,97.30
2018-12-30T10:40:51.939Z,97.20
2018-12-30T10:43:20.832Z,97.30
2018-12-30T10:45:50.663Z,97.20
2018-12-30T10:48:19.755Z,97.10
2018-12-30T10:50:49.120Z,97.20
2018-12-30T10:53:18.521Z,97.10
2018-12-30T10:55:47.859Z,97.30
2018-12-30T10:58:17.117Z,97.40
2018-12-30T11:00:46.009Z,97.20
2018-12-30T11:03:15.365Z,97.30
2018-12-30T11:05:44.397Z,97.10
2018-12-30T11:08:13.438Z,97.20
2018-12-30T11:10:42.436Z,97.20
2018-12-30T11:13:11.456Z,97.00
2018-12-30T11:15:40.592Z,97.00
2018-12-30T11:18:09.564Z,97.20
2018-12-30T11:20:38.569Z,96.80
2018-12-30T11:23:07.632Z,97.00
2018-12-30T11:25:36.898Z,96.80
2018-12-30T11:28:06.063Z,96.80
2018-12-30T11:30:35.447Z,97.00
2018-12-30T11:33:04.542Z,97.00
2018-12-30T11:35:33.690Z,97.00
2018-12-30T11:38:02.987Z,97.00
2018-12-30T11:40:31.998Z,97.10
2018-12-30T11:43:01.344Z,97.00
2018-12-30T11:45:30.418Z,96.90
2018-12-30T11:47:59.406Z,96.90
2018-12-30T11:50:28.718Z,96.80
2018-12-30T11:52:58.040Z,96.50
2018-12-30T11:55:27.188Z,96.80
2018-12-30T11:57:56.686Z,96.70
2018-12-30T12:00:25.736Z,97.10
2018-12-30T12:02:54.940Z,97.30
2018-12-30T12:05:24.642Z,97.20
2018-12-30T12:07:53.799Z,97.00
2018-12-30T12:10:23.156Z,97.10
2018-12-30T12:12:52.620Z,97.30
2018-12-30T12:15:21.609Z,97.40
2018-12-30T12:17:51.030Z,97.20
2018-12-30T12:20:20.050Z,97.20
2018-12-30T12:22:49.105Z,96.90
2018-12-30T12:25:18.146Z,96.90
2018-12-30T12:27:47.435Z,97.00
2018-12-30T12:30:16.957Z,96.90
2018-12-30T12:32:46.316Z,96.90
2018-12-30T12:35:15.378Z,97.00
2018-12-30T12:37:44.808Z,97.00
2018-12-30T12:40:14.238Z,96.80
2018-12-30T12:42:43.468Z,96.90
2018-12-30T12:45:12.935Z,96.80
2018-12-30T12:47:41.906Z,96.80
2018-12-30T12:50:11.006Z,97.00
2018-12-30T12:52:40.461Z,97.10
2018-12-30T12:55:09.931Z,97.00
2018-12-30T12:57:39.019Z,97.10
2018-12-30T13:00:10.260Z,97.00
2018-12-30T13:02:39.192Z,96.90
2018-12-30T13:05:08.550Z,96.80
2018-12-30T13:07:37.883Z,96.90
2018-12-30T13:10:09.192Z,96.90
2018-12-30T13:12:38.552Z,96.60
2018-12-30T13:15:08.377Z,96.50
2018-12-30T13:17:37.437Z,96.10
2018-12-30T13:20:06.903Z,96.60
2018-12-30T13:22:55.328Z,96.20
2018-12-30T13:25:24.192Z,96.30
2018-12-30T13:27:53.618Z,96.30
2018-12-30T13:30:22.663Z,96.40
2018-12-30T13:32:51.947Z,96.40
2018-12-30T13:35:22.771Z,96.50
2018-12-30T13:37:52.111Z,96.60
2018-12-30T13:40:21.929Z,96.70
2018-12-30T13:42:50.951Z,96.70
2018-12-30T13:45:20.348Z,96.70
2018-12-30T13:47:49.776Z,96.70
2018-12-30T13:50:19.126Z,96.60
2018-12-30T13:52:48.133Z,96.70
2018-12-30T13:55:17.135Z,96.50
2018-12-30T13:57:46.761Z,96.70
2018-12-30T14:00:15.810Z,96.80
2018-12-30T14:02:45.147Z,96.90
2018-12-30T14:05:14.228Z,97.20
2018-12-30T14:07:43.229Z,97.20
2018-12-30T14:10:12.574Z,97.20
2018-12-30T14:12:41.865Z,97.20
2018-12-30T14:15:10.954Z,97.20
2018-12-30T14:17:40.301Z,97.20
2018-12-30T14:20:10.100Z,97.30
2018-12-30T14:22:39.521Z,97.40
2018-12-30T14:25:08.662Z,97.20
2018-12-30T14:27:37.730Z,97.30
2018-12-30T14:30:08.233Z,97.30
2018-12-30T14:32:37.559Z,97.40
2018-12-30T14:35:06.645Z,97.40
2018-12-30T14:37:36.438Z,97.30
2018-12-30T14:40:05.587Z,97.40
2018-12-30T14:42:34.631Z,97.40
2018-12-30T14:45:03.718Z,97.40
2018-12-30T14:47:32.897Z,97.50
2018-12-30T14:50:02.367Z,97.60
2018-12-30T14:52:31.690Z,97.60
2018-12-30T14:55:03.810Z,97.60
2018-12-30T14:57:31.494Z,97.60
2018-12-30T15:00:00.460Z,97.60
2018-12-30T15:02:29.441Z,97.60
2018-12-30T15:04:58.692Z,97.60
2018-12-30T15:07:27.825Z,97.60
2018-12-30T15:09:56.948Z,97.40
2018-12-30T15:12:26.111Z,97.60
2018-12-30T15:14:55.815Z,97.40
2018-12-30T15:17:25.135Z,97.50
2018-12-30T15:19:54.044Z,97.50
2018-12-30T15:22:23.332Z,97.40
2018-12-30T15:24:52.465Z,97.40
2018-12-30T15:27:21.421Z,97.40
2018-12-30T15:29:50.405Z,97.40
2018-12-30T15:32:19.738Z,97.40
2018-12-30T15:34:48.730Z,97.50
2018-12-30T15:37:17.737Z,97.50
2018-12-30T15:39:47.095Z,97.50
2018-12-30T15:42:19.046Z,97.50
2018-12-30T15:44:47.010Z,97.60
2018-12-30T15:47:16.334Z,97.60
2018-12-30T15:49:45.351Z,97.60
2018-12-30T15:52:14.712Z,97.60
2018-12-30T15:54:44.120Z,97.60
2018-12-30T15:57:13.764Z,97.50
2018-12-30T15:59:43.162Z,97.60
2018-12-30T16:02:12.465Z,97.60
2018-12-30T16:04:42.539Z,97.60
2018-12-30T16:07:11.666Z,97.60
2018-12-30T16:09:40.755Z,97.60
2018-12-30T16:12:10.054Z,97.60
2018-12-30T16:14:39.854Z,97.70
2018-12-30T16:17:09.169Z,97.60
2018-12-30T16:19:38.320Z,97.80
2018-12-30T16:22:07.320Z,98.00
2018-12-30T16:24:36.370Z,98.40
2018-12-30T16:27:05.374Z,98.10
2018-12-30T16:29:34.545Z,98.20
2018-12-30T16:32:03.524Z,98.30
2018-12-30T16:34:32.589Z,98.40
2018-12-30T16:37:01.889Z,98.50
2018-12-30T16:39:31.373Z,98.80
2018-12-30T16:42:00.708Z,99.10
2018-12-30T16:44:30.027Z,99.80
2018-12-30T16:46:59.040Z,99.70
2018-12-30T16:49:28.056Z,99.90
2018-12-30T16:51:57.046Z,99.90
2018-12-30T16:54:26.058Z,99.90
2018-12-30T16:56:55.427Z,99.90
2018-12-30T16:59:24.670Z,99.90
2018-12-30T17:01:53.656Z,99.90
2018-12-30T17:04:22.671Z,99.90
2018-12-30T17:06:51.736Z,99.90
2018-12-30T17:09:20.654Z,99.90
2018-12-30T17:11:50.060Z,99.90
2018-12-30T17:14:19.126Z,99.90
2018-12-30T17:16:48.271Z,99.90
2018-12-30T17:19:18.774Z,99.90
2018-12-30T17:21:47.840Z,99.90
2018-12-30T17:24:17.145Z,99.90
2018-12-30T17:26:46.412Z,99.90
2018-12-30T17:29:15.388Z,99.90
2018-12-30T17:31:44.445Z,99.90
2018-12-30T17:34:13.867Z,99.90
2018-12-30T17:36:42.984Z,99.90
2018-12-30T17:39:12.597Z,99.90
2018-12-30T17:41:41.635Z,99.90
2018-12-30T17:44:10.541Z,99.90
2018-12-30T17:46:39.611Z,99.90
2018-12-30T17:49:08.593Z,99.90
2018-12-30T17:51:37.679Z,99.90
2018-12-30T17:54:06.971Z,99.90
2018-12-30T17:56:35.915Z,99.90
2018-12-30T17:59:04.954Z,99.90
2018-12-30T18:01:33.923Z,99.90
2018-12-30T18:04:03.277Z,99.90
2018-12-30T18:06:32.351Z,99.90
2018-12-30T18:09:01.657Z,99.90
2018-12-30T18:11:30.713Z,99.90
2018-12-30T18:13:59.796Z,99.90
2018-12-30T18:16:29.234Z,99.90
2018-12-30T18:18:58.908Z,99.90
2018-12-30T18:21:27.842Z,99.90
2018-12-30T18:23:57.768Z,99.90
2018-12-30T18:26:27.055Z,99.90
2018-12-30T18:28:56.005Z,99.90
2018-12-30T18:31:25.456Z,99.90
2018-12-30T18:33:54.511Z,99.90
2018-12-30T18:36:23.661Z,99.90
2018-12-30T18:38:53.071Z,99.90
2018-12-30T18:41:22.056Z,99.90
2018-12-30T18:43:51.010Z,99.90
2018-12-30T18:46:20.013Z,99.90
2018-12-30T18:48:49.469Z,99.90
2018-12-30T18:51:18.917Z,99.90
2018-12-30T18:53:47.948Z,99.90
2018-12-30T18:56:17.363Z,99.90
2018-12-30T18:58:46.789Z,99.90
2018-12-30T19:01:16.630Z,99.90
2018-12-30T19:03:45.688Z,99.90
2018-12-30T19:06:14.818Z,99.90
2018-12-30T19:08:44.265Z,99.90
2018-12-30T19:11:13.256Z,99.90
2018-12-30T19:13:42.899Z,99.90
2018-12-30T19:16:11.982Z,99.90
2018-12-30T19:18:41.066Z,99.90
2018-12-30T19:21:10.418Z,99.90
2018-12-30T19:23:39.864Z,99.90
2018-12-30T19:26:14.255Z,99.90
2018-12-30T19:28:40.242Z,99.90
2018-12-30T19:31:09.278Z,99.90
2018-12-30T19:33:38.587Z,99.90
2018-12-30T19:36:07.488Z,99.90
2018-12-30T19:38:36.816Z,99.90
2018-12-30T19:41:05.869Z,99.90
2018-12-30T19:43:35.139Z,99.90
2018-12-30T19:46:04.517Z,99.90
2018-12-30T19:48:33.565Z,99.90
2018-12-30T19:51:02.552Z,99.90
2018-12-30T19:53:31.916Z,99.90
2018-12-30T19:56:00.979Z,99.90
2018-12-30T19:58:30.196Z,99.90
2018-12-30T20:00:59.604Z,99.90
2018-12-30T20:03:29.618Z,99.90
2018-12-30T20:05:58.686Z,99.90
2018-12-30T20:08:27.946Z,99.90
2018-12-30T20:10:57.097Z,99.90
2018-12-30T20:13:26.184Z,99.90
2018-12-30T20:15:55.544Z,99.90
2018-12-30T20:18:24.486Z,99.90
2018-12-30T20:20:53.625Z,99.90
2018-12-30T20:23:22.548Z,99.90
2018-12-30T20:25:51.501Z,99.90
2018-12-30T20:28:20.860Z,99.90
2018-12-30T20:30:50.198Z,99.90
2018-12-30T20:33:19.654Z,99.90
2018-12-30T20:35:49.048Z,99.90
2018-12-30T20:38:17.931Z,99.90
2018-12-30T20:40:47.292Z,99.90
2018-12-30T20:43:16.630Z,99.90
2018-12-30T20:45:45.674Z,99.90
2018-12-30T20:48:14.980Z,99.90
2018-12-30T20:50:44.244Z,99.90
2018-12-30T20:53:13.541Z,99.90
2018-12-30T20:55:43.193Z,99.90
2018-12-30T20:58:15.768Z,99.90
2018-12-30T21:00:44.833Z,99.90
2018-12-30T21:03:14.104Z,99.90
2018-12-30T21:05:43.671Z,99.90
2018-12-30T21:08:12.568Z,99.90
2018-12-30T21:10:41.657Z,99.90
2018-12-30T21:13:10.719Z,99.90
2018-12-30T21:15:40.065Z,99.90
2018-12-30T21:18:09.593Z,99.90
2018-12-30T21:20:38.969Z,99.90
2018-12-30T21:23:08.844Z,99.90
2018-12-30T21:25:37.845Z,99.90
2018-12-30T21:28:07.253Z,99.90
2018-12-30T21:30:36.660Z,99.90
2018-12-30T21:33:06.079Z,99.90
2018-12-30T21:35:35.092Z,99.90
2018-12-30T21:38:04.618Z,99.90
2018-12-30T21:40:33.620Z,99.90
2018-12-30T21:43:02.879Z,99.90
2018-12-30T21:45:31.981Z,99.90
2018-12-30T21:48:01.225Z,99.90
2018-12-30T21:50:30.287Z,99.90
2018-12-30T21:52:59.319Z,99.90
2018-12-30T21:55:28.554Z,99.90
2018-12-30T21:57:57.880Z,99.90
2018-12-30T22:00:27.259Z,99.90
2018-12-30T22:02:56.425Z,99.90
2018-12-30T22:05:25.388Z,99.90
2018-12-30T22:07:54.330Z,99.90
2018-12-30T22:10:24.543Z,99.90
2018-12-30T22:12:53.925Z,99.90
2018-12-30T22:15:23.352Z,99.90
2018-12-30T22:17:52.344Z,99.90
2018-12-30T22:20:21.595Z,99.90
2018-12-30T22:22:50.699Z,99.90
2018-12-30T22:25:20.405Z,99.90
2018-12-30T22:27:49.725Z,99.90
2018-12-30T22:30:18.569Z,99.90
2018-12-30T22:32:47.509Z,99.90
2018-12-30T22:35:16.816Z,99.90
2018-12-30T22:37:46.121Z,99.90
2018-12-30T22:40:15.464Z,99.90
2018-12-30T22:42:44.453Z,99.90
2018-12-30T22:45:13.509Z,99.90
2018-12-30T22:47:42.540Z,99.90
2018-12-30T22:50:11.605Z,99.90
2018-12-30T22:52:40.594Z,99.90
2018-12-30T22:55:09.460Z,99.90
2018-12-30T22:57:38.821Z,99.90
2018-12-30T23:00:15.669Z,99.90
2018-12-30T23:02:45.377Z,99.90
2018-12-30T23:05:14.667Z,99.90
2018-12-30T23:07:43.624Z,99.90
2018-12-30T23:10:12.605Z,99.90
2018-12-30T23:12:41.591Z,99.90
2018-12-30T23:15:10.535Z,99.90
2018-12-30T23:17:39.425Z,99.90
2018-12-30T23:20:08.428Z,99.90
2018-12-30T23:22:37.719Z,99.90
2018-12-30T23:25:06.859Z,99.90
2018-12-30T23:27:35.821Z,99.90
2018-12-30T23:30:06.344Z,99.90
2018-12-30T23:32:35.724Z,99.90
2018-12-30T23:35:04.783Z,99.90
2018-12-30T23:37:34.459Z,99.90
2018-12-30T23:40:03.801Z,99.90
2018-12-30T23:42:32.780Z,99.90
2018-12-30T23:45:01.868Z,99.90
2018-12-30T23:47:30.870Z,99.90
2018-12-30T23:50:00.439Z,99.90
2018-12-30T23:52:29.875Z,99.90
2018-12-30T23:54:58.845Z,99.90
2018-12-30T23:57:27.969Z,99.90
2018-12-30T23:59:57.010Z,99.90
